sensor_id;sensor_type;location;lat;lon;timestamp;pressure;altitude;pressure_sealevel;temperature;humidity
23677;BME280;31493;49.058;12.190;2023-06-14T00:02:10;95675.97;;;13.72;68.05
23677;BME280;31493;49.058;12.190;2023-06-14T00:04:37;95674.72;;;13.66;67.94
23677;BME280;31493;49.058;12.190;2023-06-14T00:07:05;95665.81;;;13.59;68.62
23677;BME280;31493;49.058;12.190;2023-06-14T00:09:33;95671.69;;;13.61;68.38
23677;BME280;31493;49.058;12.190;2023-06-14T00:12:02;95672.13;;;13.57;68.85
23677;BME280;31493;49.058;12.190;2023-06-14T00:14:29;95675.63;;;13.46;69.38
23677;BME280;31493;49.058;12.190;2023-06-14T00:16:56;95672.38;;;13.54;69.03
23677;BME280;31493;49.058;12.190;2023-06-14T00:19:24;95667.16;;;13.54;69.19
23677;BME280;31493;49.058;12.190;2023-06-14T00:21:51;95678.38;;;13.54;69.15
23677;BME280;31493;49.058;12.190;2023-06-14T00:24:19;95669.75;;;13.54;69.20
23677;BME280;31493;49.058;12.190;2023-06-14T00:26:46;95676.06;;;13.51;69.20
23677;BME280;31493;49.058;12.190;2023-06-14T00:29:15;95679.47;;;13.52;69.12
23677;BME280;31493;49.058;12.190;2023-06-14T00:31:42;95669.03;;;13.42;69.68
23677;BME280;31493;49.058;12.190;2023-06-14T00:34:09;95664.22;;;13.37;69.88
23677;BME280;31493;49.058;12.190;2023-06-14T00:36:36;95663.16;;;13.40;69.50
23677;BME280;31493;49.058;12.190;2023-06-14T00:39:03;95666.13;;;13.35;69.30
23677;BME280;31493;49.058;12.190;2023-06-14T00:41:30;95665.69;;;13.21;70.18
23677;BME280;31493;49.058;12.190;2023-06-14T00:43:57;95678.34;;;13.14;70.13
23677;BME280;31493;49.058;12.190;2023-06-14T00:46:26;95671.78;;;13.19;70.32
23677;BME280;31493;49.058;12.190;2023-06-14T00:48:54;95662.94;;;13.01;70.87
23677;BME280;31493;49.058;12.190;2023-06-14T00:51:23;95667.94;;;12.93;70.97
23677;BME280;31493;49.058;12.190;2023-06-14T00:53:50;95666.91;;;13.05;70.85
23677;BME280;31493;49.058;12.190;2023-06-14T00:56:17;95658.38;;;13.14;70.20
23677;BME280;31493;49.058;12.190;2023-06-14T00:58:46;95661.78;;;13.15;70.18
23677;BME280;31493;49.058;12.190;2023-06-14T01:01:14;95661.84;;;13.04;70.00
23677;BME280;31493;49.058;12.190;2023-06-14T01:03:42;95657.19;;;12.98;70.10
23677;BME280;31493;49.058;12.190;2023-06-14T01:06:17;95669.47;;;12.96;70.43
23677;BME280;31493;49.058;12.190;2023-06-14T01:09:03;95660.44;;;12.90;70.92
23677;BME280;31493;49.058;12.190;2023-06-14T01:11:39;95661.38;;;12.89;70.61
23677;BME280;31493;49.058;12.190;2023-06-14T01:14:07;95658.78;;;12.89;70.59
23677;BME280;31493;49.058;12.190;2023-06-14T01:16:34;95656.69;;;12.83;70.70
23677;BME280;31493;49.058;12.190;2023-06-14T01:19:10;95661.63;;;12.86;70.54
23677;BME280;31493;49.058;12.190;2023-06-14T01:21:39;95663.22;;;12.77;70.45
23677;BME280;31493;49.058;12.190;2023-06-14T01:24:09;95651.22;;;12.86;70.21
23677;BME280;31493;49.058;12.190;2023-06-14T01:26:38;95655.53;;;12.76;70.30
23677;BME280;31493;49.058;12.190;2023-06-14T01:29:12;95650.28;;;12.66;70.79
23677;BME280;31493;49.058;12.190;2023-06-14T01:31:44;95653.53;;;12.58;71.50
23677;BME280;31493;49.058;12.190;2023-06-14T01:34:11;95654.09;;;12.41;72.29
23677;BME280;31493;49.058;12.190;2023-06-14T01:36:40;95651.50;;;12.41;72.27
23677;BME280;31493;49.058;12.190;2023-06-14T01:39:10;95666.59;;;12.36;73.00
23677;BME280;31493;49.058;12.190;2023-06-14T01:41:38;95659.69;;;12.25;73.39
23677;BME280;31493;49.058;12.190;2023-06-14T01:44:06;95650.72;;;12.29;73.34
23677;BME280;31493;49.058;12.190;2023-06-14T01:46:34;95648.00;;;12.31;73.01
23677;BME280;31493;49.058;12.190;2023-06-14T01:49:01;95652.09;;;12.33;73.33
23677;BME280;31493;49.058;12.190;2023-06-14T01:51:29;95659.66;;;12.36;72.90
23677;BME280;31493;49.058;12.190;2023-06-14T01:53:56;95655.53;;;12.34;72.65
23677;BME280;31493;49.058;12.190;2023-06-14T01:56:25;95664.47;;;12.41;72.25
23677;BME280;31493;49.058;12.190;2023-06-14T01:58:52;95661.41;;;12.36;72.13
23677;BME280;31493;49.058;12.190;2023-06-14T02:01:19;95650.91;;;12.37;72.03
23677;BME280;31493;49.058;12.190;2023-06-14T02:03:47;95650.34;;;12.34;71.79
23677;BME280;31493;49.058;12.190;2023-06-14T02:06:15;95653.63;;;12.36;71.92
23677;BME280;31493;49.058;12.190;2023-06-14T02:08:42;95652.88;;;12.45;71.37
23677;BME280;31493;49.058;12.190;2023-06-14T02:11:09;95655.63;;;12.32;72.12
23677;BME280;31493;49.058;12.190;2023-06-14T02:13:37;95650.94;;;12.26;72.23
23677;BME280;31493;49.058;12.190;2023-06-14T02:16:04;95661.91;;;12.30;72.02
23677;BME280;31493;49.058;12.190;2023-06-14T02:18:31;95648.84;;;12.20;72.58
23677;BME280;31493;49.058;12.190;2023-06-14T02:20:59;95660.81;;;12.12;73.30
23677;BME280;31493;49.058;12.190;2023-06-14T02:23:26;95657.28;;;12.01;73.73
23677;BME280;31493;49.058;12.190;2023-06-14T02:25:53;95663.69;;;11.97;74.05
23677;BME280;31493;49.058;12.190;2023-06-14T02:28:20;95649.31;;;11.93;74.60
23677;BME280;31493;49.058;12.190;2023-06-14T02:30:48;95659.69;;;11.93;74.65
23677;BME280;31493;49.058;12.190;2023-06-14T02:33:15;95660.63;;;11.92;74.65
23677;BME280;31493;49.058;12.190;2023-06-14T02:35:43;95663.00;;;11.84;75.26
23677;BME280;31493;49.058;12.190;2023-06-14T02:38:10;95655.53;;;11.91;75.25
23677;BME280;31493;49.058;12.190;2023-06-14T02:40:37;95668.53;;;11.79;76.29
23677;BME280;31493;49.058;12.190;2023-06-14T02:43:04;95669.00;;;11.73;76.64
23677;BME280;31493;49.058;12.190;2023-06-14T02:45:31;95666.28;;;11.75;77.13
23677;BME280;31493;49.058;12.190;2023-06-14T02:47:59;95662.63;;;11.77;77.06
23677;BME280;31493;49.058;12.190;2023-06-14T02:50:26;95655.44;;;11.70;77.68
23677;BME280;31493;49.058;12.190;2023-06-14T02:52:55;95667.47;;;11.71;77.46
23677;BME280;31493;49.058;12.190;2023-06-14T02:55:22;95661.13;;;11.64;77.96
23677;BME280;31493;49.058;12.190;2023-06-14T02:57:49;95658.66;;;11.73;77.44
23677;BME280;31493;49.058;12.190;2023-06-14T03:00:19;95661.72;;;11.67;77.79
23677;BME280;31493;49.058;12.190;2023-06-14T03:02:46;95652.41;;;11.65;77.55
23677;BME280;31493;49.058;12.190;2023-06-14T03:05:14;95661.94;;;11.75;77.27
23677;BME280;31493;49.058;12.190;2023-06-14T03:07:42;95657.44;;;11.77;77.08
23677;BME280;31493;49.058;12.190;2023-06-14T03:10:11;95661.25;;;11.62;77.96
23677;BME280;31493;49.058;12.190;2023-06-14T03:12:39;95656.69;;;11.54;78.40
23677;BME280;31493;49.058;12.190;2023-06-14T03:15:06;95664.47;;;11.43;79.33
23677;BME280;31493;49.058;12.190;2023-06-14T03:17:34;95664.81;;;11.50;79.32
23677;BME280;31493;49.058;12.190;2023-06-14T03:20:05;95653.25;;;11.54;78.81
23677;BME280;31493;49.058;12.190;2023-06-14T03:22:35;95672.31;;;11.53;79.87
23677;BME280;31493;49.058;12.190;2023-06-14T03:25:03;95664.19;;;11.57;79.42
23677;BME280;31493;49.058;12.190;2023-06-14T03:27:31;95670.34;;;11.56;79.57
23677;BME280;31493;49.058;12.190;2023-06-14T03:29:58;95665.16;;;11.56;79.51
23677;BME280;31493;49.058;12.190;2023-06-14T03:32:25;95657.38;;;11.56;79.59
23677;BME280;31493;49.058;12.190;2023-06-14T03:34:52;95668.22;;;11.62;79.77
23677;BME280;31493;49.058;12.190;2023-06-14T03:37:19;95673.03;;;11.66;79.78
23677;BME280;31493;49.058;12.190;2023-06-14T03:39:48;95680.56;;;11.69;79.74
23677;BME280;31493;49.058;12.190;2023-06-14T03:42:15;95685.06;;;11.67;79.56
23677;BME280;31493;49.058;12.190;2023-06-14T03:44:42;95677.03;;;11.70;79.83
23677;BME280;31493;49.058;12.190;2023-06-14T03:47:09;95679.13;;;11.76;79.91
23677;BME280;31493;49.058;12.190;2023-06-14T03:49:36;95675.50;;;11.79;79.81
23677;BME280;31493;49.058;12.190;2023-06-14T03:52:04;95690.09;;;11.80;79.98
23677;BME280;31493;49.058;12.190;2023-06-14T03:54:31;95688.34;;;11.69;80.49
23677;BME280;31493;49.058;12.190;2023-06-14T03:56:59;95681.63;;;11.89;79.93
23677;BME280;31493;49.058;12.190;2023-06-14T03:59:26;95679.84;;;11.90;79.35
23677;BME280;31493;49.058;12.190;2023-06-14T04:01:54;95697.19;;;11.89;80.26
23677;BME280;31493;49.058;12.190;2023-06-14T04:04:21;95700.09;;;11.96;80.05
23677;BME280;31493;49.058;12.190;2023-06-14T04:06:55;95700.50;;;11.91;80.00
23677;BME280;31493;49.058;12.190;2023-06-14T04:09:24;95700.09;;;12.07;79.64
23677;BME280;31493;49.058;12.190;2023-06-14T04:11:51;95706.25;;;11.95;79.75
23677;BME280;31493;49.058;12.190;2023-06-14T04:14:20;95695.22;;;12.14;79.78
23677;BME280;31493;49.058;12.190;2023-06-14T04:16:48;95705.97;;;12.09;79.82
23677;BME280;31493;49.058;12.190;2023-06-14T04:19:16;95704.28;;;12.19;79.66
23677;BME280;31493;49.058;12.190;2023-06-14T04:21:43;95701.84;;;12.18;79.37
23677;BME280;31493;49.058;12.190;2023-06-14T04:24:10;95708.97;;;12.36;78.97
23677;BME280;31493;49.058;12.190;2023-06-14T04:26:39;95703.00;;;12.46;78.28
23677;BME280;31493;49.058;12.190;2023-06-14T04:29:06;95709.72;;;12.59;78.12
23677;BME280;31493;49.058;12.190;2023-06-14T04:31:34;95716.16;;;12.65;78.04
23677;BME280;31493;49.058;12.190;2023-06-14T04:34:05;95701.72;;;12.72;78.14
23677;BME280;31493;49.058;12.190;2023-06-14T04:36:32;95718.09;;;12.52;79.18
23677;BME280;31493;49.058;12.190;2023-06-14T04:39:02;95718.97;;;12.73;79.24
23677;BME280;31493;49.058;12.190;2023-06-14T04:41:30;95713.72;;;12.84;78.36
23677;BME280;31493;49.058;12.190;2023-06-14T04:43:57;95723.72;;;12.89;78.85
23677;BME280;31493;49.058;12.190;2023-06-14T04:46:27;95721.31;;;12.97;78.73
23677;BME280;31493;49.058;12.190;2023-06-14T04:48:55;95723.72;;;13.10;78.44
23677;BME280;31493;49.058;12.190;2023-06-14T04:51:23;95711.53;;;13.10;77.67
23677;BME280;31493;49.058;12.190;2023-06-14T04:53:55;95720.94;;;13.02;77.97
23677;BME280;31493;49.058;12.190;2023-06-14T04:56:24;95722.53;;;13.14;77.68
23677;BME280;31493;49.058;12.190;2023-06-14T04:58:52;95724.66;;;13.30;77.38
23677;BME280;31493;49.058;12.190;2023-06-14T05:01:20;95718.66;;;13.29;77.37
23677;BME280;31493;49.058;12.190;2023-06-14T05:03:48;95727.19;;;13.41;76.70
23677;BME280;31493;49.058;12.190;2023-06-14T05:06:17;95729.88;;;13.60;76.36
23677;BME280;31493;49.058;12.190;2023-06-14T05:08:44;95730.56;;;13.62;75.45
23677;BME280;31493;49.058;12.190;2023-06-14T05:11:11;95724.97;;;13.67;75.18
23677;BME280;31493;49.058;12.190;2023-06-14T05:13:38;95727.91;;;13.83;75.73
23677;BME280;31493;49.058;12.190;2023-06-14T05:16:06;95727.34;;;13.80;74.48
23677;BME280;31493;49.058;12.190;2023-06-14T05:18:33;95732.72;;;13.88;74.81
23677;BME280;31493;49.058;12.190;2023-06-14T05:21:01;95727.28;;;14.10;74.76
23677;BME280;31493;49.058;12.190;2023-06-14T05:23:30;95733.13;;;13.83;74.78
23677;BME280;31493;49.058;12.190;2023-06-14T05:25:58;95730.44;;;14.04;74.17
23677;BME280;31493;49.058;12.190;2023-06-14T05:28:25;95739.56;;;15.73;65.33
23677;BME280;31493;49.058;12.190;2023-06-14T05:30:52;95734.91;;;15.00;69.04
23677;BME280;31493;49.058;12.190;2023-06-14T05:33:19;95727.53;;;14.57;73.01
23677;BME280;31493;49.058;12.190;2023-06-14T05:35:46;95747.22;;;14.40;73.52
23677;BME280;31493;49.058;12.190;2023-06-14T05:38:13;95752.28;;;14.32;74.12
23677;BME280;31493;49.058;12.190;2023-06-14T05:40:41;95749.41;;;14.45;74.00
23677;BME280;31493;49.058;12.190;2023-06-14T05:43:08;95749.19;;;14.58;73.25
23677;BME280;31493;49.058;12.190;2023-06-14T05:45:36;95754.50;;;14.46;72.79
23677;BME280;31493;49.058;12.190;2023-06-14T05:48:03;95751.72;;;14.29;73.22
23677;BME280;31493;49.058;12.190;2023-06-14T05:50:30;95753.81;;;14.44;73.11
23677;BME280;31493;49.058;12.190;2023-06-14T05:52:57;95766.56;;;14.47;73.25
23677;BME280;31493;49.058;12.190;2023-06-14T05:55:24;95767.03;;;14.62;73.17
23677;BME280;31493;49.058;12.190;2023-06-14T05:57:53;95759.31;;;14.61;73.11
23677;BME280;31493;49.058;12.190;2023-06-14T06:00:20;95768.13;;;14.89;72.68
23677;BME280;31493;49.058;12.190;2023-06-14T06:02:47;95770.31;;;14.84;72.45
23677;BME280;31493;49.058;12.190;2023-06-14T06:05:15;95767.38;;;15.16;71.91
23677;BME280;31493;49.058;12.190;2023-06-14T06:07:42;95769.63;;;14.82;70.79
23677;BME280;31493;49.058;12.190;2023-06-14T06:10:11;95769.44;;;15.31;70.75
23677;BME280;31493;49.058;12.190;2023-06-14T06:12:38;95768.25;;;15.16;70.40
23677;BME280;31493;49.058;12.190;2023-06-14T06:15:07;95768.09;;;15.18;69.82
23677;BME280;31493;49.058;12.190;2023-06-14T06:17:37;95783.09;;;15.72;69.17
23677;BME280;31493;49.058;12.190;2023-06-14T06:20:05;95779.97;;;15.49;68.78
23677;BME280;31493;49.058;12.190;2023-06-14T06:22:33;95775.38;;;15.80;66.76
23677;BME280;31493;49.058;12.190;2023-06-14T06:25:00;95783.38;;;15.69;66.71
23677;BME280;31493;49.058;12.190;2023-06-14T06:27:28;95778.50;;;15.37;67.27
23677;BME280;31493;49.058;12.190;2023-06-14T06:29:56;95787.78;;;15.59;67.36
23677;BME280;31493;49.058;12.190;2023-06-14T06:32:24;95797.56;;;15.38;68.24
23677;BME280;31493;49.058;12.190;2023-06-14T06:34:51;95792.16;;;15.58;68.03
23677;BME280;31493;49.058;12.190;2023-06-14T06:37:19;95799.44;;;15.74;67.97
23677;BME280;31493;49.058;12.190;2023-06-14T06:39:46;95800.16;;;15.67;67.16
23677;BME280;31493;49.058;12.190;2023-06-14T06:42:13;95800.56;;;15.99;67.08
23677;BME280;31493;49.058;12.190;2023-06-14T06:44:40;95800.91;;;16.14;65.79
23677;BME280;31493;49.058;12.190;2023-06-14T06:47:07;95794.44;;;15.91;64.51
23677;BME280;31493;49.058;12.190;2023-06-14T06:49:36;95809.72;;;16.13;65.13
23677;BME280;31493;49.058;12.190;2023-06-14T06:52:05;95806.78;;;15.98;64.89
23677;BME280;31493;49.058;12.190;2023-06-14T06:54:33;95808.97;;;15.93;64.59
23677;BME280;31493;49.058;12.190;2023-06-14T06:57:00;95812.88;;;16.17;64.36
23677;BME280;31493;49.058;12.190;2023-06-14T06:59:28;95823.91;;;16.10;64.42
23677;BME280;31493;49.058;12.190;2023-06-14T07:01:56;95817.22;;;15.98;64.34
23677;BME280;31493;49.058;12.190;2023-06-14T07:04:23;95823.41;;;15.97;64.25
23677;BME280;31493;49.058;12.190;2023-06-14T07:06:51;95819.34;;;16.12;64.38
23677;BME280;31493;49.058;12.190;2023-06-14T07:09:18;95823.84;;;16.48;63.75
23677;BME280;31493;49.058;12.190;2023-06-14T07:11:46;95822.84;;;16.58;61.22
23677;BME280;31493;49.058;12.190;2023-06-14T07:14:13;95826.53;;;16.56;60.66
23677;BME280;31493;49.058;12.190;2023-06-14T07:16:40;95832.97;;;16.71;60.26
23677;BME280;31493;49.058;12.190;2023-06-14T07:19:08;95822.72;;;16.50;60.68
23677;BME280;31493;49.058;12.190;2023-06-14T07:21:36;95820.88;;;16.88;61.21
23677;BME280;31493;49.058;12.190;2023-06-14T07:24:06;95821.78;;;16.69;60.79
23677;BME280;31493;49.058;12.190;2023-06-14T07:26:33;95829.63;;;16.97;60.66
23677;BME280;31493;49.058;12.190;2023-06-14T07:29:01;95835.50;;;16.99;58.39
23677;BME280;31493;49.058;12.190;2023-06-14T07:31:28;95824.59;;;16.85;58.62
23677;BME280;31493;49.058;12.190;2023-06-14T07:33:55;95835.88;;;17.04;58.22
23677;BME280;31493;49.058;12.190;2023-06-14T07:36:22;95834.84;;;17.32;56.83
23677;BME280;31493;49.058;12.190;2023-06-14T07:38:49;95832.06;;;17.34;54.90
23677;BME280;31493;49.058;12.190;2023-06-14T07:41:17;95836.44;;;17.07;54.03
23677;BME280;31493;49.058;12.190;2023-06-14T07:43:44;95833.88;;;17.15;55.85
23677;BME280;31493;49.058;12.190;2023-06-14T07:46:11;95836.50;;;17.15;55.93
23677;BME280;31493;49.058;12.190;2023-06-14T07:48:39;95848.34;;;17.45;53.07
23677;BME280;31493;49.058;12.190;2023-06-14T07:51:06;95843.56;;;17.23;50.60
23677;BME280;31493;49.058;12.190;2023-06-14T07:53:33;95838.38;;;17.49;49.81
23677;BME280;31493;49.058;12.190;2023-06-14T07:56:00;95835.59;;;17.86;50.63
23677;BME280;31493;49.058;12.190;2023-06-14T07:58:29;95841.88;;;18.02;51.95
23677;BME280;31493;49.058;12.190;2023-06-14T08:00:56;95844.19;;;18.39;49.51
23677;BME280;31493;49.058;12.190;2023-06-14T08:03:23;95837.53;;;17.84;51.34
23677;BME280;31493;49.058;12.190;2023-06-14T08:05:51;95838.69;;;17.64;51.34
23677;BME280;31493;49.058;12.190;2023-06-14T08:08:18;95843.94;;;17.46;51.20
23677;BME280;31493;49.058;12.190;2023-06-14T08:10:45;95847.63;;;17.79;50.75
23677;BME280;31493;49.058;12.190;2023-06-14T08:13:12;95847.22;;;17.92;49.73
23677;BME280;31493;49.058;12.190;2023-06-14T08:15:40;95848.06;;;17.92;48.04
23677;BME280;31493;49.058;12.190;2023-06-14T08:18:07;95854.09;;;18.19;48.49
23677;BME280;31493;49.058;12.190;2023-06-14T08:20:34;95847.25;;;18.26;48.38
23677;BME280;31493;49.058;12.190;2023-06-14T08:23:02;95850.09;;;18.41;48.56
23677;BME280;31493;49.058;12.190;2023-06-14T08:25:29;95850.72;;;18.35;48.40
23677;BME280;31493;49.058;12.190;2023-06-14T08:27:56;95851.41;;;18.37;46.30
23677;BME280;31493;49.058;12.190;2023-06-14T08:30:23;95850.81;;;18.59;48.14
23677;BME280;31493;49.058;12.190;2023-06-14T08:32:52;95847.44;;;18.33;47.48
23677;BME280;31493;49.058;12.190;2023-06-14T08:35:21;95850.91;;;18.41;47.66
23677;BME280;31493;49.058;12.190;2023-06-14T08:37:49;95848.88;;;18.27;48.86
23677;BME280;31493;49.058;12.190;2023-06-14T08:40:18;95851.88;;;18.32;47.16
23677;BME280;31493;49.058;12.190;2023-06-14T08:42:49;95852.06;;;18.39;46.32
23677;BME280;31493;49.058;12.190;2023-06-14T08:45:17;95846.47;;;18.34;46.11
23677;BME280;31493;49.058;12.190;2023-06-14T08:47:45;95852.06;;;18.47;46.37
23677;BME280;31493;49.058;12.190;2023-06-14T08:50:19;95854.91;;;18.19;46.06
23677;BME280;31493;49.058;12.190;2023-06-14T08:52:51;95859.28;;;18.45;46.70
23677;BME280;31493;49.058;12.190;2023-06-14T08:55:19;95864.59;;;18.27;47.51
23677;BME280;31493;49.058;12.190;2023-06-14T08:57:47;95868.41;;;17.98;46.91
23677;BME280;31493;49.058;12.190;2023-06-14T09:00:15;95872.03;;;18.06;46.56
23677;BME280;31493;49.058;12.190;2023-06-14T09:02:43;95872.44;;;18.19;46.02
23677;BME280;31493;49.058;12.190;2023-06-14T09:05:10;95864.81;;;18.34;46.18
23677;BME280;31493;49.058;12.190;2023-06-14T09:07:40;95868.56;;;18.31;47.36
23677;BME280;31493;49.058;12.190;2023-06-14T09:10:10;95863.34;;;18.39;45.29
23677;BME280;31493;49.058;12.190;2023-06-14T09:12:38;95876.53;;;18.21;44.88
23677;BME280;31493;49.058;12.190;2023-06-14T09:15:06;95877.72;;;18.27;45.40
23677;BME280;31493;49.058;12.190;2023-06-14T09:17:35;95872.28;;;18.20;44.83
23677;BME280;31493;49.058;12.190;2023-06-14T09:20:02;95880.94;;;18.21;45.32
23677;BME280;31493;49.058;12.190;2023-06-14T09:22:32;95884.84;;;18.43;45.98
23677;BME280;31493;49.058;12.190;2023-06-14T09:25:00;95881.53;;;18.41;46.49
23677;BME280;31493;49.058;12.190;2023-06-14T09:27:28;95883.84;;;18.44;46.30
23677;BME280;31493;49.058;12.190;2023-06-14T09:29:55;95883.94;;;18.60;45.09
23677;BME280;31493;49.058;12.190;2023-06-14T09:32:22;95879.28;;;18.88;47.22
23677;BME280;31493;49.058;12.190;2023-06-14T09:34:49;95874.44;;;19.10;46.36
23677;BME280;31493;49.058;12.190;2023-06-14T09:37:30;95884.53;;;18.88;43.62
23677;BME280;31493;49.058;12.190;2023-06-14T09:39:58;95883.47;;;19.15;44.62
23677;BME280;31493;49.058;12.190;2023-06-14T09:42:27;95882.50;;;19.24;45.84
23677;BME280;31493;49.058;12.190;2023-06-14T09:44:56;95887.44;;;18.77;44.17
23677;BME280;31493;49.058;12.190;2023-06-14T09:47:24;95884.13;;;19.25;46.25
23677;BME280;31493;49.058;12.190;2023-06-14T09:49:51;95880.84;;;19.23;45.93
23677;BME280;31493;49.058;12.190;2023-06-14T09:52:21;95877.41;;;19.23;45.09
23677;BME280;31493;49.058;12.190;2023-06-14T09:54:49;95890.88;;;19.36;45.49
23677;BME280;31493;49.058;12.190;2023-06-14T09:57:20;95885.31;;;19.47;44.82
23677;BME280;31493;49.058;12.190;2023-06-14T09:59:52;95882.47;;;19.32;45.53
23677;BME280;31493;49.058;12.190;2023-06-14T10:02:25;95884.47;;;19.30;43.41
23677;BME280;31493;49.058;12.190;2023-06-14T10:04:57;95878.81;;;18.85;42.45
23677;BME280;31493;49.058;12.190;2023-06-14T10:07:28;95881.44;;;19.01;41.80
23677;BME280;31493;49.058;12.190;2023-06-14T10:09:57;95880.03;;;19.31;44.33
23677;BME280;31493;49.058;12.190;2023-06-14T10:12:25;95877.09;;;19.50;43.20
23677;BME280;31493;49.058;12.190;2023-06-14T10:14:55;95876.94;;;19.52;43.53
23677;BME280;31493;49.058;12.190;2023-06-14T10:17:27;95876.28;;;19.74;45.18
23677;BME280;31493;49.058;12.190;2023-06-14T10:20:10;95884.34;;;19.73;43.11
23677;BME280;31493;49.058;12.190;2023-06-14T10:22:43;95873.00;;;19.64;43.13
23677;BME280;31493;49.058;12.190;2023-06-14T10:25:26;95874.00;;;19.79;44.51
23677;BME280;31493;49.058;12.190;2023-06-14T10:28:02;95870.72;;;19.77;43.06
23677;BME280;31493;49.058;12.190;2023-06-14T10:30:30;95878.75;;;19.76;42.31
23677;BME280;31493;49.058;12.190;2023-06-14T10:33:04;95875.78;;;19.95;43.31
23677;BME280;31493;49.058;12.190;2023-06-14T10:35:32;95887.13;;;19.63;42.22
23677;BME280;31493;49.058;12.190;2023-06-14T10:38:06;95876.28;;;19.82;41.84
23677;BME280;31493;49.058;12.190;2023-06-14T10:40:34;95865.16;;;19.72;41.80
23677;BME280;31493;49.058;12.190;2023-06-14T10:43:21;95879.31;;;20.82;44.59
23677;BME280;31493;49.058;12.190;2023-06-14T10:46:18;95880.44;;;20.57;39.15
23677;BME280;31493;49.058;12.190;2023-06-14T10:48:48;95874.19;;;21.66;39.17
23677;BME280;31493;49.058;12.190;2023-06-14T10:51:17;95875.41;;;22.45;38.29
23677;BME280;31493;49.058;12.190;2023-06-14T10:53:47;95875.44;;;21.32;37.02
23677;BME280;31493;49.058;12.190;2023-06-14T10:56:27;95869.78;;;21.81;37.03
23677;BME280;31493;49.058;12.190;2023-06-14T10:58:55;95873.00;;;21.31;38.38
23677;BME280;31493;49.058;12.190;2023-06-14T11:01:32;95868.56;;;20.92;38.05
23677;BME280;31493;49.058;12.190;2023-06-14T11:04:06;95869.09;;;20.48;38.42
23677;BME280;31493;49.058;12.190;2023-06-14T11:06:45;95869.09;;;20.40;39.68
23677;BME280;31493;49.058;12.190;2023-06-14T11:09:50;95867.47;;;20.31;38.38
23677;BME280;31493;49.058;12.190;2023-06-14T11:12:22;95850.13;;;21.00;39.38
23677;BME280;31493;49.058;12.190;2023-06-14T11:14:51;95869.31;;;21.09;41.08
23677;BME280;31493;49.058;12.190;2023-06-14T11:17:20;95867.06;;;20.66;38.76
23677;BME280;31493;49.058;12.190;2023-06-14T11:19:47;95867.66;;;20.46;38.19
23677;BME280;31493;49.058;12.190;2023-06-14T11:22:14;95861.22;;;21.41;38.51
23677;BME280;31493;49.058;12.190;2023-06-14T11:24:42;95855.97;;;21.10;37.35
23677;BME280;31493;49.058;12.190;2023-06-14T11:27:09;95861.00;;;21.20;38.33
23677;BME280;31493;49.058;12.190;2023-06-14T11:29:37;95855.22;;;21.02;37.39
23677;BME280;31493;49.058;12.190;2023-06-14T11:32:07;95850.88;;;21.09;39.07
23677;BME280;31493;49.058;12.190;2023-06-14T11:34:39;95857.59;;;20.88;38.50
23677;BME280;31493;49.058;12.190;2023-06-14T11:37:06;95861.63;;;20.99;38.40
23677;BME280;31493;49.058;12.190;2023-06-14T11:39:33;95859.97;;;20.20;39.81
23677;BME280;31493;49.058;12.190;2023-06-14T11:42:01;95872.47;;;20.09;41.79
23677;BME280;31493;49.058;12.190;2023-06-14T11:44:29;95865.41;;;20.10;41.07
23677;BME280;31493;49.058;12.190;2023-06-14T11:46:56;95860.66;;;20.05;41.59
23677;BME280;31493;49.058;12.190;2023-06-14T11:49:23;95873.63;;;20.15;40.34
23677;BME280;31493;49.058;12.190;2023-06-14T11:51:53;95861.16;;;19.93;40.50
23677;BME280;31493;49.058;12.190;2023-06-14T11:54:20;95862.38;;;19.66;40.90
23677;BME280;31493;49.058;12.190;2023-06-14T11:56:47;95864.31;;;19.64;40.86
23677;BME280;31493;49.058;12.190;2023-06-14T11:59:14;95863.47;;;19.55;40.44
23677;BME280;31493;49.058;12.190;2023-06-14T12:01:42;95865.97;;;19.65;41.61
23677;BME280;31493;49.058;12.190;2023-06-14T12:04:11;95875.47;;;19.90;42.46
23677;BME280;31493;49.058;12.190;2023-06-14T12:06:38;95868.91;;;19.78;43.14
23677;BME280;31493;49.058;12.190;2023-06-14T12:09:07;95862.66;;;19.30;43.48
23677;BME280;31493;49.058;12.190;2023-06-14T12:11:39;95857.22;;;19.56;43.72
23677;BME280;31493;49.058;12.190;2023-06-14T12:14:06;95863.81;;;19.84;43.07
23677;BME280;31493;49.058;12.190;2023-06-14T12:16:33;95858.22;;;19.96;43.55
23677;BME280;31493;49.058;12.190;2023-06-14T12:19:08;95863.44;;;20.12;43.50
23677;BME280;31493;49.058;12.190;2023-06-14T12:21:36;95851.09;;;20.12;42.51
23677;BME280;31493;49.058;12.190;2023-06-14T12:24:05;95856.22;;;20.06;42.26
23677;BME280;31493;49.058;12.190;2023-06-14T12:26:37;95863.03;;;20.31;42.47
23677;BME280;31493;49.058;12.190;2023-06-14T12:29:05;95853.25;;;20.17;44.59
23677;BME280;31493;49.058;12.190;2023-06-14T12:31:32;95856.50;;;20.19;44.03
23677;BME280;31493;49.058;12.190;2023-06-14T12:33:59;95861.75;;;20.27;43.23
23677;BME280;31493;49.058;12.190;2023-06-14T12:36:26;95854.88;;;20.26;41.19
23677;BME280;31493;49.058;12.190;2023-06-14T12:38:53;95854.25;;;20.00;39.98
23677;BME280;31493;49.058;12.190;2023-06-14T12:41:20;95861.19;;;19.76;39.42
23677;BME280;31493;49.058;12.190;2023-06-14T12:43:49;95864.94;;;19.82;38.79
23677;BME280;31493;49.058;12.190;2023-06-14T12:46:17;95856.81;;;20.32;38.82
23677;BME280;31493;49.058;12.190;2023-06-14T12:48:44;95850.34;;;19.96;38.38
23677;BME280;31493;49.058;12.190;2023-06-14T12:51:11;95850.81;;;20.94;37.00
23677;BME280;31493;49.058;12.190;2023-06-14T12:53:38;95849.44;;;21.29;38.43
23677;BME280;31493;49.058;12.190;2023-06-14T12:56:05;95850.78;;;21.25;36.74
23677;BME280;31493;49.058;12.190;2023-06-14T12:58:32;95847.53;;;21.46;37.00